createdAt,value
2016-07-30T00:00:07.866Z,1010.33
2016-07-30T00:01:07.893Z,1010.32
2016-07-30T00:02:07.923Z,1010.26
2016-07-30T00:03:07.946Z,1010.27
2016-07-30T00:04:07.971Z,1010.21
2016-07-30T00:05:07.998Z,1010.24
2016-07-30T00:06:08.025Z,1010.22
2016-07-30T00:07:08.051Z,1010.27
2016-07-30T00:08:08.077Z,1010.25
2016-07-30T00:09:08.104Z,1010.27
2016-07-30T00:10:08.133Z,1010.26
2016-07-30T00:11:08.155Z,1010.24
2016-07-30T00:12:08.182Z,1010.24
2016-07-30T00:13:08.208Z,1010.3
2016-07-30T00:14:08.235Z,1010.27
2016-07-30T00:15:08.262Z,1010.24
2016-07-30T00:16:08.288Z,1010.26
2016-07-30T00:17:08.316Z,1010.22
2016-07-30T00:18:08.340Z,1010.27
2016-07-30T00:19:08.366Z,1010.26
2016-07-30T00:20:08.394Z,1010.25
2016-07-30T00:21:08.420Z,1010.28
2016-07-30T00:22:08.446Z,1010.25
2016-07-30T00:23:08.472Z,1010.26
2016-07-30T00:24:08.498Z,1010.28
2016-07-30T00:25:08.524Z,1010.31
2016-07-30T00:26:08.550Z,1010.3
2016-07-30T00:27:08.578Z,1010.27
2016-07-30T00:28:08.603Z,1010.32
2016-07-30T00:29:08.629Z,1010.27
2016-07-30T00:30:08.656Z,1010.31
2016-07-30T00:31:08.683Z,1010.31
2016-07-30T00:32:08.710Z,1010.3
2016-07-30T00:33:08.735Z,1010.3
2016-07-30T00:34:08.766Z,1010.27
2016-07-30T00:35:08.788Z,1010.28
2016-07-30T00:36:08.814Z,1010.3
2016-07-30T00:38:08.867Z,1010.27
2016-07-30T00:39:08.893Z,1010.25
2016-07-30T00:40:08.918Z,1010.23
2016-07-30T00:41:08.944Z,1010.24
2016-07-30T00:42:08.971Z,1010.22
2016-07-30T00:43:08.998Z,1010.27
2016-07-30T00:44:09.023Z,1010.24
2016-07-30T00:45:09.050Z,1010.29
2016-07-30T00:46:09.076Z,1010.3
2016-07-30T00:47:09.101Z,1010.27
2016-07-30T00:48:09.127Z,1010.26
2016-07-30T00:49:09.154Z,1010.24
2016-07-30T00:50:09.180Z,1010.27
2016-07-30T00:51:09.206Z,1010.27
2016-07-30T00:52:09.233Z,1010.25
2016-07-30T00:53:09.258Z,1010.24
2016-07-30T00:54:09.285Z,1010.29
2016-07-30T00:55:09.310Z,1010.27
2016-07-30T00:56:09.337Z,1010.33
2016-07-30T00:57:09.364Z,1010.33
2016-07-30T00:58:09.389Z,1010.29
2016-07-30T00:59:09.415Z,1010.31
2016-07-30T01:00:09.442Z,1010.27
2016-07-30T01:01:09.469Z,1010.27
2016-07-30T01:02:09.494Z,1010.25
2016-07-30T01:03:09.521Z,1010.2
2016-07-30T01:04:09.547Z,1010.2
2016-07-30T01:05:09.573Z,1010.21
2016-07-30T01:06:09.599Z,1010.18
2016-07-30T01:07:09.625Z,1010.18
2016-07-30T01:08:09.651Z,1010.15
2016-07-30T01:09:09.678Z,1010.18
2016-07-30T01:10:09.704Z,1010.19
2016-07-30T01:11:09.730Z,1010.18
2016-07-30T01:12:09.757Z,1010.15
2016-07-30T01:13:09.782Z,1010.22
2016-07-30T01:14:09.809Z,1010.18
2016-07-30T01:15:09.835Z,1010.2
2016-07-30T01:16:09.862Z,1010.14
2016-07-30T01:17:09.887Z,1010.11
2016-07-30T01:18:09.913Z,1010.1
2016-07-30T01:19:09.940Z,1010.1
2016-07-30T01:20:09.964Z,1010.12
2016-07-30T01:21:09.991Z,1010.14
2016-07-30T01:22:10.018Z,1010.16
2016-07-30T01:23:10.044Z,1010.13
2016-07-30T01:24:10.070Z,1010.14
2016-07-30T01:25:10.096Z,1010.15
2016-07-30T01:26:10.123Z,1010.13
2016-07-30T01:27:10.149Z,1010.11
2016-07-30T01:28:10.175Z,1010.11
2016-07-30T01:29:10.201Z,1010.13
2016-07-30T01:30:10.227Z,1010.13
2016-07-30T01:31:10.253Z,1010.15
2016-07-30T01:32:10.279Z,1010.11
2016-07-30T01:33:10.305Z,1010.15
2016-07-30T01:34:10.332Z,1010.13
2016-07-30T01:35:10.358Z,1010.13
2016-07-30T01:36:10.384Z,1010.11
2016-07-30T01:37:10.410Z,1010.11
2016-07-30T01:38:10.436Z,1010.13
2016-07-30T01:39:10.462Z,1010.08
2016-07-30T01:40:10.489Z,1010.07
2016-07-30T01:41:10.514Z,1010.08
2016-07-30T01:42:10.539Z,1010.11
2016-07-30T01:43:10.572Z,1010.1
2016-07-30T01:44:10.593Z,1010.1
2016-07-30T01:45:10.619Z,1010.1
2016-07-30T01:46:10.644Z,1010.09
2016-07-30T01:47:10.671Z,1010.09
2016-07-30T01:48:10.696Z,1010.11
2016-07-30T01:49:10.722Z,1010.09
2016-07-30T01:50:10.749Z,1010.16
2016-07-30T01:51:10.775Z,1010.18
2016-07-30T01:52:10.802Z,1010.17
2016-07-30T01:53:10.827Z,1010.14
2016-07-30T01:54:10.853Z,1010.16
2016-07-30T01:55:10.879Z,1010.16
2016-07-30T01:56:10.906Z,1010.17
2016-07-30T01:57:10.931Z,1010.15
2016-07-30T01:58:10.958Z,1010.16
2016-07-30T01:59:10.984Z,1010.16
2016-07-30T02:00:11.009Z,1010.14
2016-07-30T02:01:11.036Z,1010.11
2016-07-30T02:02:11.062Z,1010.11
2016-07-30T02:03:11.088Z,1010.09
2016-07-30T02:04:11.113Z,1010.08
2016-07-30T02:05:11.139Z,1010.06
2016-07-30T02:06:11.165Z,1010.05
2016-07-30T02:07:11.192Z,1010.03
2016-07-30T02:08:11.217Z,1010.09
2016-07-30T02:09:11.243Z,1010.04
2016-07-30T02:10:11.271Z,1010.07
2016-07-30T02:11:11.296Z,1010.05
2016-07-30T02:12:11.322Z,1010.01
2016-07-30T02:13:11.349Z,1010.04
2016-07-30T02:14:11.374Z,1010.01
2016-07-30T02:15:11.400Z,1010.06
2016-07-30T02:16:11.429Z,1010.02
2016-07-30T02:17:11.452Z,1010
2016-07-30T02:18:11.479Z,1010
2016-07-30T02:19:11.504Z,1010.02
2016-07-30T02:20:11.530Z,1010.03
2016-07-30T02:21:11.555Z,1010.01
2016-07-30T02:22:11.581Z,1010.03
2016-07-30T02:23:11.608Z,1010.03
2016-07-30T02:24:11.634Z,1009.99
2016-07-30T02:25:11.661Z,1010
2016-07-30T02:26:11.686Z,1010
2016-07-30T02:27:11.711Z,1009.98
2016-07-30T02:28:11.738Z,1009.92
2016-07-30T02:29:11.764Z,1009.96
2016-07-30T02:30:11.789Z,1009.98
2016-07-30T02:31:11.822Z,1009.96
2016-07-30T02:32:11.842Z,1009.95
2016-07-30T02:33:11.867Z,1009.89
2016-07-30T02:34:11.893Z,1009.92
2016-07-30T02:35:11.919Z,1009.92
2016-07-30T02:36:11.946Z,1009.92
2016-07-30T02:37:11.971Z,1009.95
2016-07-30T02:38:11.997Z,1009.96
2016-07-30T02:39:12.023Z,1009.97
2016-07-30T02:40:12.049Z,1009.96
2016-07-30T02:41:12.074Z,1009.98
2016-07-30T02:42:12.100Z,1009.99
2016-07-30T02:43:12.127Z,1009.99
2016-07-30T02:44:12.153Z,1009.98
2016-07-30T02:45:12.178Z,1009.97
2016-07-30T02:46:12.205Z,1009.98
2016-07-30T02:47:12.230Z,1009.98
2016-07-30T02:48:12.256Z,1009.97
2016-07-30T02:49:12.282Z,1009.95
2016-07-30T02:50:12.308Z,1009.97
2016-07-30T02:51:12.334Z,1009.98
2016-07-30T02:52:12.360Z,1009.98
2016-07-30T02:53:12.386Z,1009.96
2016-07-30T02:54:12.412Z,1009.95
2016-07-30T02:55:12.437Z,1009.94
2016-07-30T02:56:12.462Z,1010
2016-07-30T02:57:12.489Z,1009.98
2016-07-30T02:58:12.515Z,1009.99
2016-07-30T02:59:12.541Z,1010.03
2016-07-30T03:00:12.567Z,1010.03
2016-07-30T03:01:12.593Z,1010.05
2016-07-30T03:02:12.619Z,1010.01
2016-07-30T03:03:12.644Z,1010.03
2016-07-30T03:04:12.670Z,1010.01
2016-07-30T03:05:12.696Z,1010.03
2016-07-30T03:06:12.721Z,1010.04
2016-07-30T03:07:12.748Z,1010.01
2016-07-30T03:08:12.773Z,1010.04
2016-07-30T03:09:12.800Z,1010.04
2016-07-30T03:10:12.825Z,1010.04
2016-07-30T03:11:12.851Z,1010.07
2016-07-30T03:12:12.876Z,1010.11
2016-07-30T03:13:12.902Z,1010.09
2016-07-30T03:14:12.928Z,1010.05
2016-07-30T03:15:12.954Z,1010.12
2016-07-30T03:16:12.980Z,1010.06
2016-07-30T03:17:13.006Z,1010.12
2016-07-30T03:18:13.032Z,1010.12
2016-07-30T03:19:13.057Z,1010.16
2016-07-30T03:20:13.084Z,1010.19
2016-07-30T03:21:13.109Z,1010.16
2016-07-30T03:22:13.136Z,1010.23
2016-07-30T03:23:13.162Z,1010.23
2016-07-30T03:24:13.188Z,1010.28
2016-07-30T03:25:13.213Z,1010.24
2016-07-30T03:26:13.240Z,1010.22
2016-07-30T03:27:13.266Z,1010.26
2016-07-30T03:28:13.291Z,1010.24
2016-07-30T03:29:13.317Z,1010.23
2016-07-30T03:30:13.343Z,1010.28
2016-07-30T03:31:13.369Z,1010.24
2016-07-30T03:32:13.395Z,1010.27
2016-07-30T03:33:13.420Z,1010.28
2016-07-30T03:34:13.447Z,1010.25
2016-07-30T03:35:13.472Z,1010.27
2016-07-30T03:36:13.503Z,1010.26
2016-07-30T03:37:13.524Z,1010.23
2016-07-30T03:38:13.551Z,1010.27
2016-07-30T03:39:13.576Z,1010.27
2016-07-30T03:40:13.601Z,1010.28
2016-07-30T03:41:13.630Z,1010.26
2016-07-30T03:42:13.654Z,1010.26
2016-07-30T03:43:13.678Z,1010.27
2016-07-30T03:44:13.705Z,1010.25
2016-07-30T03:45:13.731Z,1010.22
2016-07-30T03:46:13.756Z,1010.27
2016-07-30T03:47:13.782Z,1010.23
2016-07-30T03:48:13.808Z,1010.28
2016-07-30T03:49:13.835Z,1010.31
2016-07-30T03:50:13.859Z,1010.29
2016-07-30T03:51:13.886Z,1010.31
2016-07-30T03:52:13.912Z,1010.34
2016-07-30T03:53:13.938Z,1010.36
2016-07-30T03:54:13.962Z,1010.34
2016-07-30T03:55:13.988Z,1010.35
2016-07-30T03:56:14.015Z,1010.35
2016-07-30T03:57:14.040Z,1010.36
2016-07-30T03:58:14.066Z,1010.31
2016-07-30T03:59:14.092Z,1010.32
2016-07-30T04:00:14.118Z,1010.3
2016-07-30T04:01:14.143Z,1010.28
2016-07-30T04:02:14.170Z,1010.28
2016-07-30T04:03:14.195Z,1010.28
2016-07-30T04:04:14.221Z,1010.34
2016-07-30T04:05:14.247Z,1010.3
2016-07-30T04:06:14.272Z,1010.25
2016-07-30T04:07:14.299Z,1010.25
2016-07-30T04:08:14.324Z,1010.28
2016-07-30T04:09:14.350Z,1010.24
2016-07-30T04:10:14.377Z,1010.29
2016-07-30T04:11:14.402Z,1010.24
2016-07-30T04:12:14.432Z,1010.27
2016-07-30T04:13:14.453Z,1010.23
2016-07-30T04:14:14.479Z,1010.24
2016-07-30T04:15:14.509Z,1010.23
2016-07-30T04:16:14.530Z,1010.27
2016-07-30T04:17:14.556Z,1010.24
2016-07-30T04:18:14.583Z,1010.3
2016-07-30T04:19:14.607Z,1010.27
2016-07-30T04:20:14.633Z,1010.3
2016-07-30T04:21:14.659Z,1010.27
2016-07-30T04:22:14.685Z,1010.29
2016-07-30T04:23:14.711Z,1010.3
2016-07-30T04:24:14.737Z,1010.3
2016-07-30T04:25:14.763Z,1010.34
2016-07-30T04:26:14.789Z,1010.36
2016-07-30T04:27:14.815Z,1010.31
2016-07-30T04:28:14.841Z,1010.35
2016-07-30T04:29:14.867Z,1010.37
2016-07-30T04:30:14.892Z,1010.35
2016-07-30T04:31:14.918Z,1010.35
2016-07-30T04:32:14.944Z,1010.34
2016-07-30T04:33:14.970Z,1010.38
2016-07-30T04:34:14.995Z,1010.35
2016-07-30T04:35:15.022Z,1010.4
2016-07-30T04:36:15.047Z,1010.39
2016-07-30T04:37:15.074Z,1010.39
2016-07-30T04:38:15.099Z,1010.38
2016-07-30T04:39:15.126Z,1010.39
2016-07-30T04:40:15.152Z,1010.37
2016-07-30T04:41:15.177Z,1010.39
2016-07-30T04:42:15.202Z,1010.37
2016-07-30T04:43:15.229Z,1010.36
2016-07-30T04:44:15.255Z,1010.37
2016-07-30T04:45:15.281Z,1010.34
2016-07-30T04:46:15.306Z,1010.35
2016-07-30T04:47:15.332Z,1010.34
2016-07-30T04:48:15.358Z,1010.32
2016-07-30T04:49:15.383Z,1010.32
2016-07-30T04:50:15.410Z,1010.3
2016-07-30T04:51:15.436Z,1010.3
2016-07-30T04:52:15.461Z,1010.34
2016-07-30T04:53:15.488Z,1010.31
2016-07-30T04:54:15.514Z,1010.31
2016-07-30T04:55:15.547Z,1010.33
2016-07-30T04:56:15.565Z,1010.41
2016-07-30T04:57:15.591Z,1010.45
2016-07-30T04:58:15.617Z,1010.44
2016-07-30T04:59:15.644Z,1010.47
2016-07-30T05:00:15.670Z,1010.48
2016-07-30T05:01:15.696Z,1010.47
2016-07-30T05:02:15.722Z,1010.45
2016-07-30T05:03:15.747Z,1010.48
2016-07-30T05:04:15.773Z,1010.48
2016-07-30T05:05:15.800Z,1010.5
2016-07-30T05:06:15.825Z,1010.5
2016-07-30T05:07:15.851Z,1010.47
2016-07-30T05:09:15.903Z,1010.53
2016-07-30T05:10:15.929Z,1010.49
2016-07-30T05:11:15.954Z,1010.51
2016-07-30T05:12:15.981Z,1010.5
2016-07-30T05:13:16.006Z,1010.46
2016-07-30T05:14:16.032Z,1010.5
2016-07-30T05:15:16.059Z,1010.48
2016-07-30T05:16:16.085Z,1010.51
2016-07-30T05:17:16.110Z,1010.52
2016-07-30T05:18:16.136Z,1010.57
2016-07-30T05:19:16.162Z,1010.53
2016-07-30T05:20:16.190Z,1010.54
2016-07-30T05:21:16.214Z,1010.51
2016-07-30T05:22:16.240Z,1010.51
2016-07-30T05:24:16.292Z,1010.5
2016-07-30T05:25:16.318Z,1010.47
2016-07-30T05:26:16.344Z,1010.51
2016-07-30T05:27:16.370Z,1010.51
2016-07-30T05:28:16.397Z,1010.49
2016-07-30T05:29:16.422Z,1010.49
2016-07-30T05:30:16.452Z,1010.5
2016-07-30T05:31:16.475Z,1010.47
2016-07-30T05:32:16.500Z,1010.48
2016-07-30T05:33:16.526Z,1010.54
2016-07-30T05:34:16.552Z,1010.49
2016-07-30T05:35:16.579Z,1010.47
2016-07-30T05:36:16.605Z,1010.45
2016-07-30T05:37:16.630Z,1010.45
2016-07-30T05:39:16.684Z,1010.47
2016-07-30T05:40:16.709Z,1010.47
2016-07-30T05:41:16.734Z,1010.43
2016-07-30T05:42:16.764Z,1010.48
2016-07-30T05:43:16.787Z,1010.48
2016-07-30T05:44:16.813Z,1010.49
2016-07-30T05:45:16.839Z,1010.52
2016-07-30T05:46:16.866Z,1010.47
2016-07-30T05:47:16.891Z,1010.5
2016-07-30T05:48:16.918Z,1010.5
2016-07-30T05:49:16.945Z,1010.51
2016-07-30T05:50:16.971Z,1010.48
2016-07-30T05:51:16.998Z,1010.54
2016-07-30T05:52:17.022Z,1010.54
2016-07-30T05:53:17.050Z,1010.52
2016-07-30T05:54:17.075Z,1010.54
2016-07-30T05:55:17.102Z,1010.55
2016-07-30T05:56:17.128Z,1010.57
2016-07-30T05:57:17.159Z,1010.55
2016-07-30T05:58:17.180Z,1010.57
2016-07-30T05:59:17.206Z,1010.56
2016-07-30T06:00:17.233Z,1010.57
2016-07-30T06:01:17.259Z,1010.56
2016-07-30T06:02:17.284Z,1010.6
2016-07-30T06:03:17.319Z,1010.59
2016-07-30T06:04:17.338Z,1010.57
2016-07-30T06:05:17.363Z,1010.64
2016-07-30T06:06:17.389Z,1010.61
2016-07-30T06:07:17.416Z,1010.63
2016-07-30T06:08:17.443Z,1010.64
2016-07-30T06:09:17.468Z,1010.68
2016-07-30T06:10:17.495Z,1010.6
2016-07-30T06:11:17.521Z,1010.67
2016-07-30T06:12:17.548Z,1010.65
2016-07-30T06:13:17.578Z,1010.68
2016-07-30T06:14:17.600Z,1010.64
2016-07-30T06:15:17.627Z,1010.68
2016-07-30T06:16:17.651Z,1010.67
2016-07-30T06:17:17.679Z,1010.71
2016-07-30T06:18:17.706Z,1010.7
2016-07-30T06:19:17.739Z,1010.71
2016-07-30T06:20:17.758Z,1010.73
2016-07-30T06:21:17.785Z,1010.71
2016-07-30T06:22:17.810Z,1010.7
2016-07-30T06:23:17.838Z,1010.74
2016-07-30T06:24:17.863Z,1010.72
2016-07-30T06:25:17.890Z,1010.69
2016-07-30T06:26:17.917Z,1010.75
2016-07-30T06:27:17.951Z,1010.73
2016-07-30T06:28:17.969Z,1010.72
2016-07-30T06:29:17.997Z,1010.71
2016-07-30T06:30:18.022Z,1010.73
2016-07-30T06:31:18.048Z,1010.72
2016-07-30T06:32:18.079Z,1010.73
2016-07-30T06:33:18.101Z,1010.72
2016-07-30T06:34:18.128Z,1010.78
2016-07-30T06:35:18.155Z,1010.77
2016-07-30T06:36:18.182Z,1010.79
2016-07-30T06:37:18.208Z,1010.79
2016-07-30T06:38:18.234Z,1010.77
2016-07-30T06:39:18.261Z,1010.8
2016-07-30T06:40:18.288Z,1010.82
2016-07-30T06:41:18.315Z,1010.79
2016-07-30T06:42:18.341Z,1010.8
2016-07-30T06:43:18.368Z,1010.8
2016-07-30T06:44:18.394Z,1010.78
2016-07-30T06:45:18.420Z,1010.75
2016-07-30T06:46:18.450Z,1010.77
2016-07-30T06:47:18.475Z,1010.76
2016-07-30T06:48:18.501Z,1010.77
2016-07-30T06:49:18.532Z,1010.79
2016-07-30T06:50:18.553Z,1010.77
2016-07-30T06:51:18.580Z,1010.75
2016-07-30T06:52:18.607Z,1010.73
2016-07-30T06:53:18.633Z,1010.76
2016-07-30T06:54:18.660Z,1010.79
2016-07-30T06:55:18.688Z,1010.8
2016-07-30T06:56:18.712Z,1010.78
2016-07-30T06:57:18.740Z,1010.77
2016-07-30T06:58:18.767Z,1010.78
2016-07-30T06:59:18.794Z,1010.82
2016-07-30T07:00:18.819Z,1010.82
2016-07-30T07:01:18.846Z,1010.79
2016-07-30T07:02:18.873Z,1010.8
2016-07-30T07:03:18.909Z,1010.79
2016-07-30T07:04:18.926Z,1010.79
2016-07-30T07:05:18.961Z,1010.82
2016-07-30T07:06:18.981Z,1010.84
2016-07-30T07:07:19.008Z,1010.86
2016-07-30T07:08:19.034Z,1010.84
2016-07-30T07:09:19.060Z,1010.85
2016-07-30T07:10:19.088Z,1010.8
2016-07-30T07:11:19.113Z,1010.82
2016-07-30T07:12:19.140Z,1010.76
2016-07-30T07:13:19.168Z,1010.76
2016-07-30T07:14:19.194Z,1010.76
2016-07-30T07:15:19.220Z,1010.81
2016-07-30T07:16:19.248Z,1010.86
2016-07-30T07:17:19.274Z,1010.8
2016-07-30T07:18:19.300Z,1010.82
2016-07-30T07:19:19.328Z,1010.85
2016-07-30T07:20:19.355Z,1010.83
2016-07-30T07:21:19.382Z,1010.83
2016-07-30T07:22:19.408Z,1010.86
2016-07-30T07:23:19.435Z,1010.86
2016-07-30T07:24:19.462Z,1010.83
2016-07-30T07:25:19.490Z,1010.84
2016-07-30T07:26:19.516Z,1010.88
2016-07-30T07:27:19.547Z,1010.87
2016-07-30T07:28:19.570Z,1010.86
2016-07-30T07:29:19.598Z,1010.89
2016-07-30T07:30:19.624Z,1010.88
2016-07-30T07:31:19.650Z,1010.92
2016-07-30T07:32:19.678Z,1010.91
2016-07-30T07:33:19.704Z,1010.86
2016-07-30T07:34:19.731Z,1010.92
2016-07-30T07:35:19.759Z,1010.92
2016-07-30T07:36:19.785Z,1010.88
2016-07-30T07:37:19.812Z,1010.97
2016-07-30T07:38:19.840Z,1010.93
2016-07-30T07:39:19.867Z,1010.94
2016-07-30T07:40:19.892Z,1010.97
2016-07-30T07:41:19.920Z,1010.99
2016-07-30T07:42:19.948Z,1011.02
2016-07-30T07:43:19.975Z,1010.94
2016-07-30T07:44:20.001Z,1010.98
2016-07-30T07:45:20.028Z,1010.99
2016-07-30T07:46:20.055Z,1010.95
2016-07-30T07:47:20.083Z,1010.99
2016-07-30T07:48:20.109Z,1010.99
2016-07-30T07:49:20.137Z,1010.95
2016-07-30T07:50:20.163Z,1010.97
2016-07-30T07:51:20.195Z,1010.96
2016-07-30T07:52:20.217Z,1011
2016-07-30T07:53:20.245Z,1010.99
2016-07-30T07:54:20.272Z,1010.98
2016-07-30T07:55:20.304Z,1011
2016-07-30T07:56:20.326Z,1010.95
2016-07-30T07:57:20.354Z,1010.92
2016-07-30T07:58:20.382Z,1010.97
2016-07-30T07:59:20.414Z,1010.97
2016-07-30T08:00:20.435Z,1010.94
2016-07-30T08:01:20.464Z,1010.95
2016-07-30T08:02:20.489Z,1010.94
2016-07-30T08:03:20.516Z,1010.94
2016-07-30T08:04:20.544Z,1010.94
2016-07-30T08:05:20.571Z,1010.98
2016-07-30T08:06:20.597Z,1010.97
2016-07-30T08:07:20.625Z,1010.96
2016-07-30T08:08:20.652Z,1010.99
2016-07-30T08:09:20.681Z,1011
2016-07-30T08:10:20.707Z,1010.97
2016-07-30T08:11:20.736Z,1010.99
2016-07-30T08:12:20.763Z,1011.01
2016-07-30T08:13:20.790Z,1011.01
2016-07-30T08:14:20.817Z,1010.99
2016-07-30T08:15:20.846Z,1010.99
2016-07-30T08:16:20.873Z,1011.02
2016-07-30T08:17:20.915Z,1011
2016-07-30T08:18:20.927Z,1010.95
2016-07-30T08:19:20.956Z,1010.97
2016-07-30T08:20:20.983Z,1010.96
2016-07-30T08:21:21.013Z,1010.96
2016-07-30T08:22:21.038Z,1010.99
2016-07-30T08:23:21.067Z,1010.96
2016-07-30T08:24:21.093Z,1010.92
2016-07-30T08:25:21.121Z,1010.94
2016-07-30T08:26:21.150Z,1010.91
2016-07-30T08:27:21.183Z,1010.92
2016-07-30T08:28:21.205Z,1010.89
2016-07-30T08:29:21.232Z,1010.93
2016-07-30T08:30:21.261Z,1010.94
2016-07-30T08:31:21.289Z,1010.9
2016-07-30T08:32:21.316Z,1010.95
2016-07-30T08:33:21.345Z,1010.92
2016-07-30T08:34:21.372Z,1010.95
2016-07-30T08:35:21.409Z,1010.92
2016-07-30T08:36:21.428Z,1010.94
2016-07-30T08:37:21.456Z,1010.88
2016-07-30T08:38:21.483Z,1010.86
2016-07-30T08:39:21.512Z,1010.87
2016-07-30T08:40:21.539Z,1010.83
2016-07-30T08:41:21.568Z,1010.84
2016-07-30T08:42:21.595Z,1010.87
2016-07-30T08:43:21.623Z,1010.89
2016-07-30T08:44:21.652Z,1010.88
2016-07-30T08:45:21.694Z,1010.9
2016-07-30T08:46:21.708Z,1010.92
2016-07-30T08:47:21.736Z,1010.87
2016-07-30T08:48:21.764Z,1010.9
2016-07-30T08:49:21.792Z,1010.88
2016-07-30T08:50:21.818Z,1010.91
2016-07-30T08:51:21.852Z,1010.89
2016-07-30T08:52:21.876Z,1010.86
2016-07-30T08:53:21.905Z,1010.85
2016-07-30T08:54:21.933Z,1010.81
2016-07-30T08:55:21.960Z,1010.77
2016-07-30T08:56:21.989Z,1010.77
2016-07-30T08:57:22.017Z,1010.78
2016-07-30T08:58:22.045Z,1010.78
2016-07-30T08:59:22.081Z,1010.79
2016-07-30T09:00:22.102Z,1010.79
2016-07-30T09:01:22.129Z,1010.83
2016-07-30T09:02:22.158Z,1010.82
2016-07-30T09:03:22.187Z,1010.84
2016-07-30T09:04:22.214Z,1010.83
2016-07-30T09:05:22.243Z,1010.88
2016-07-30T09:06:22.271Z,1010.86
2016-07-30T09:07:22.301Z,1010.84
2016-07-30T09:08:22.328Z,1010.86
2016-07-30T09:09:22.357Z,1010.83
2016-07-30T09:10:22.386Z,1010.88
2016-07-30T09:11:22.421Z,1010.86
2016-07-30T09:12:22.441Z,1010.89
2016-07-30T09:13:22.470Z,1010.87
2016-07-30T09:14:22.499Z,1010.87
2016-07-30T09:15:22.526Z,1010.89
2016-07-30T09:16:22.556Z,1010.91
2016-07-30T09:17:22.584Z,1010.9
2016-07-30T09:18:22.613Z,1010.88
2016-07-30T09:19:22.641Z,1010.89
2016-07-30T09:20:22.669Z,1010.87
2016-07-30T09:21:22.698Z,1010.86
2016-07-30T09:22:22.727Z,1010.85
2016-07-30T09:23:22.762Z,1010.85
2016-07-30T09:24:22.783Z,1010.88
2016-07-30T09:25:22.813Z,1010.86
2016-07-30T09:26:22.839Z,1010.87
2016-07-30T09:27:22.869Z,1010.91
2016-07-30T09:28:22.897Z,1010.88
2016-07-30T09:29:22.927Z,1010.87
2016-07-30T09:30:22.954Z,1010.84
2016-07-30T09:31:22.992Z,1010.84
2016-07-30T09:32:23.011Z,1010.88
2016-07-30T09:33:23.041Z,1010.89
2016-07-30T09:34:23.069Z,1010.86
2016-07-30T09:35:23.106Z,1010.86
2016-07-30T09:36:23.126Z,1010.88
2016-07-30T09:37:23.153Z,1010.83
2016-07-30T09:38:23.183Z,1010.87
2016-07-30T09:39:23.210Z,1010.86
2016-07-30T09:40:23.239Z,1010.88
2016-07-30T09:41:23.268Z,1010.86
2016-07-30T09:42:23.296Z,1010.83
2016-07-30T09:43:23.326Z,1010.84
2016-07-30T09:44:23.354Z,1010.8
2016-07-30T09:45:23.392Z,1010.8
2016-07-30T09:46:23.413Z,1010.78
2016-07-30T09:47:23.442Z,1010.85
2016-07-30T09:48:23.468Z,1010.82
2016-07-30T09:49:23.498Z,1010.81
2016-07-30T09:50:23.528Z,1010.79
2016-07-30T09:51:23.556Z,1010.82
2016-07-30T09:52:23.584Z,1010.78
2016-07-30T09:53:23.615Z,1010.81
2016-07-30T09:55:23.671Z,1010.68
2016-07-30T09:56:23.699Z,1010.72
2016-07-30T09:57:23.728Z,1010.7
2016-07-30T09:58:23.757Z,1010.69
2016-07-30T09:59:23.785Z,1010.71
2016-07-30T10:00:23.814Z,1010.72
2016-07-30T10:01:23.843Z,1010.74
2016-07-30T10:02:23.871Z,1010.75
2016-07-30T10:03:23.900Z,1010.74
2016-07-30T10:04:23.929Z,1010.74
2016-07-30T10:05:23.958Z,1010.78
2016-07-30T10:06:23.987Z,1010.79
2016-07-30T10:07:24.015Z,1010.73
2016-07-30T10:08:24.043Z,1010.75
2016-07-30T10:10:24.101Z,1010.7
2016-07-30T10:11:24.130Z,1010.71
2016-07-30T10:12:24.159Z,1010.71
2016-07-30T10:13:24.188Z,1010.71
2016-07-30T10:14:24.216Z,1010.74
2016-07-30T10:15:24.251Z,1010.77
2016-07-30T10:16:24.274Z,1010.76
2016-07-30T10:17:24.302Z,1010.73
2016-07-30T10:18:24.330Z,1010.73
2016-07-30T10:19:24.360Z,1010.73
2016-07-30T10:20:24.389Z,1010.72
2016-07-30T10:21:24.417Z,1010.73
2016-07-30T10:22:24.446Z,1010.71
2016-07-30T10:23:24.475Z,1010.7
2016-07-30T10:25:24.532Z,1010.71
2016-07-30T10:26:24.561Z,1010.76
2016-07-30T10:27:24.591Z,1010.74
2016-07-30T10:28:24.619Z,1010.75
2016-07-30T10:29:24.647Z,1010.79
2016-07-30T10:30:24.677Z,1010.75
2016-07-30T10:31:24.706Z,1010.75
2016-07-30T10:32:24.733Z,1010.72
2016-07-30T10:33:24.763Z,1010.76
2016-07-30T10:34:24.792Z,1010.78
2016-07-30T10:35:24.821Z,1010.8
2016-07-30T10:36:24.849Z,1010.8
2016-07-30T10:37:24.878Z,1010.82
2016-07-30T10:38:24.907Z,1010.82
2016-07-30T10:40:24.965Z,1010.82
2016-07-30T10:41:24.994Z,1010.85
2016-07-30T10:42:25.023Z,1010.87
2016-07-30T10:43:25.050Z,1010.83
2016-07-30T10:44:25.081Z,1010.81
2016-07-30T10:45:25.109Z,1010.79
2016-07-30T10:46:25.139Z,1010.79
2016-07-30T10:47:25.166Z,1010.75
2016-07-30T10:48:25.194Z,1010.79
2016-07-30T10:49:25.225Z,1010.8
2016-07-30T10:50:25.253Z,1010.77
2016-07-30T10:51:25.283Z,1010.82
2016-07-30T10:52:25.311Z,1010.79
2016-07-30T10:53:25.342Z,1010.73
2016-07-30T10:55:25.397Z,1010.78
2016-07-30T10:56:25.427Z,1010.77
2016-07-30T10:57:25.457Z,1010.77
2016-07-30T10:58:25.483Z,1010.76
2016-07-30T10:59:25.522Z,1010.79
2016-07-30T11:00:25.542Z,1010.77
2016-07-30T11:01:25.575Z,1010.81
2016-07-30T11:02:25.599Z,1010.81
2016-07-30T11:03:25.628Z,1010.79
2016-07-30T11:04:25.656Z,1010.79
2016-07-30T11:05:25.685Z,1010.75
2016-07-30T11:06:25.715Z,1010.72
2016-07-30T11:07:25.756Z,1010.73
2016-07-30T11:08:25.772Z,1010.72
2016-07-30T11:09:25.802Z,1010.72
2016-07-30T11:10:25.828Z,1010.74
2016-07-30T11:11:25.858Z,1010.77
2016-07-30T11:12:25.886Z,1010.83
2016-07-30T11:13:25.915Z,1010.86
2016-07-30T11:14:25.945Z,1010.84
2016-07-30T11:15:25.973Z,1010.73
2016-07-30T11:16:26.002Z,1010.75
2016-07-30T11:17:26.030Z,1010.79
2016-07-30T11:18:26.060Z,1010.81
2016-07-30T11:19:26.089Z,1010.81
2016-07-30T11:20:26.118Z,1010.79
2016-07-30T11:21:26.147Z,1010.81
2016-07-30T11:22:26.176Z,1010.81
2016-07-30T11:23:26.203Z,1010.79
2016-07-30T11:24:26.233Z,1010.81
2016-07-30T11:25:26.261Z,1010.79
2016-07-30T11:26:26.292Z,1010.76
2016-07-30T11:27:26.320Z,1010.77
2016-07-30T11:28:26.348Z,1010.8
2016-07-30T11:29:26.377Z,1010.79
2016-07-30T11:30:26.405Z,1010.8
2016-07-30T11:31:26.435Z,1010.77
2016-07-30T11:32:26.464Z,1010.79
2016-07-30T11:33:26.493Z,1010.79
2016-07-30T11:34:26.521Z,1010.78
2016-07-30T11:35:26.550Z,1010.76
2016-07-30T11:36:26.579Z,1010.76
2016-07-30T11:37:26.609Z,1010.78
2016-07-30T11:38:26.636Z,1010.73
2016-07-30T11:39:26.666Z,1010.68
2016-07-30T11:40:26.695Z,1010.71
2016-07-30T11:41:26.723Z,1010.7
2016-07-30T11:42:26.751Z,1010.71
2016-07-30T11:43:26.781Z,1010.74
2016-07-30T11:44:26.810Z,1010.72
2016-07-30T11:45:26.838Z,1010.73
2016-07-30T11:46:26.867Z,1010.78
2016-07-30T11:47:26.898Z,1010.75
2016-07-30T11:48:26.926Z,1010.76
2016-07-30T11:49:26.953Z,1010.74
2016-07-30T11:50:26.984Z,1010.8
2016-07-30T11:51:27.011Z,1010.79
2016-07-30T11:52:27.041Z,1010.8
2016-07-30T11:53:27.070Z,1010.77
2016-07-30T11:54:27.099Z,1010.8
2016-07-30T11:55:27.128Z,1010.79
2016-07-30T11:56:27.156Z,1010.78
2016-07-30T11:57:27.186Z,1010.79
2016-07-30T11:58:27.214Z,1010.76
2016-07-30T11:59:27.243Z,1010.76
2016-07-30T12:00:27.272Z,1010.77
2016-07-30T12:01:27.301Z,1010.74
2016-07-30T12:02:27.330Z,1010.77
2016-07-30T12:03:27.358Z,1010.72
2016-07-30T12:04:27.387Z,1010.76
2016-07-30T12:05:27.417Z,1010.74
2016-07-30T12:06:27.445Z,1010.74
2016-07-30T12:07:27.474Z,1010.75
2016-07-30T12:08:27.503Z,1010.79
2016-07-30T12:09:27.532Z,1010.74
2016-07-30T12:10:27.562Z,1010.76
2016-07-30T12:11:27.590Z,1010.77
2016-07-30T12:12:27.619Z,1010.78
2016-07-30T12:13:27.647Z,1010.74
2016-07-30T12:14:27.676Z,1010.75
2016-07-30T12:15:27.705Z,1010.75
2016-07-30T12:16:27.734Z,1010.75
2016-07-30T12:17:27.763Z,1010.76